SABCA F-16B from Belgian Air Force at Volkel.
 Regi:FB24  LARGER
 MSN Year:6J-24 1990
 Date of picture:2019-06-13 12:17
 Discription:OCU/10W. Special Tail to celebrate 30 years OCU squadron. (Operational Conversion Unit)
 Position:24R
 Logs: 44F044 FB24 --- 2019-06-13 09:33:09 F-16BM Belgium BAF | 10 Wing Malden, NL 2610 893
 Metar SA 13/06/2019 11:55 METAR EHVK 131155Z AUTO 20015KT 150V250 9999 FEW043 SCT094 OVC100 18/08 Q1011 BLU 19015G25KT 9999 SCT036=
 Hits: 26 ID: 2337

Debriefing: Photographed movements of Airports in NW-Europe.
The images of our site attendant is in authorisation from Queen of Sky.
Copying of images of this site have been prohibited in which manner without the authorisation of the photographer.
In behalf of the crew :"Thank you visiting us" - Contact
Factsheets SABCA, F-16B, Belgian Air Force, made by De Plane! © 2006 - 2022 All rights reserved


.